Time,TemperatureF,DewpointF,PressureIn,WindDirection,WindDirectionDegrees,WindSpeedMPH,WindSpeedGustMPH,Humidity,HourlyPrecipIn,Conditions,Clouds,dailyrainin,SolarRadiationWatts/m^2,SoftwareType,DateUTC
2013-03-07 00:00:00,33.0,-99.9,44.89,WNW,288,6.0,20.0,-999,-99.99,,,0.00,0.000000,,2013-03-07 07:00:00,
2013-03-07 00:53:00,33.0,-99.9,44.89,WNW,288,6.0,20.0,-999,-99.99,,,0.00,0.000000,,2013-03-07 07:53:00,
2013-03-07 01:00:00,33.0,-99.9,-100.00,North,-999,-999.0,-999.0,-999,-99.99,,,-99.99,,,2013-03-07 08:00:00,
2013-03-07 01:55:00,33.0,-99.9,-100.00,North,-999,-999.0,-999.0,-999,-99.99,,,-99.99,,,2013-03-07 08:55:00,
2013-03-07 02:00:00,32.0,-99.9,44.89,WNW,287,6.0,18.0,-999,-99.99,,,0.00,0.000000,,2013-03-07 09:00:00,
2013-03-07 02:54:00,32.0,-99.9,44.89,WNW,287,6.0,18.0,-999,-99.99,,,0.00,0.000000,,2013-03-07 09:54:00,
2013-03-07 03:00:00,33.0,-99.9,44.89,WNW,296,5.0,15.0,-999,-99.99,,,-99.99,0.000000,,2013-03-07 10:00:00,
2013-03-07 03:54:00,33.0,-99.9,44.89,WNW,296,5.0,15.0,-999,-99.99,,,-99.99,0.000000,,2013-03-07 10:54:00,
2013-03-07 04:00:00,32.0,-99.9,-100.00,WNW,296,6.0,19.0,-999,-99.99,,,-99.99,0.000000,,2013-03-07 11:00:00,
2013-03-07 06:00:00,32.0,-99.9,-100.00,WNW,286,4.0,15.0,-999,-99.99,,,0.00,0.000000,,2013-03-07 13:00:00,
2013-03-07 06:53:00,32.0,-99.9,-100.00,WNW,286,4.0,15.0,-999,-99.99,,,0.00,0.000000,,2013-03-07 13:53:00,
2013-03-07 07:00:00,31.0,-99.9,44.89,North,-999,-999.0,-999.0,-999,-99.99,,,0.00,,,2013-03-07 14:00:00,
2013-03-07 07:54:00,31.0,-99.9,44.89,North,-999,-999.0,-999.0,-999,-99.99,,,0.00,,,2013-03-07 14:54:00,
2013-03-07 08:00:00,33.0,-99.9,-100.00,WNW,286,5.0,14.0,-999,-99.99,,,0.00,0.900000,,2013-03-07 15:00:00,
2013-03-07 08:53:00,33.0,-99.9,-100.00,WNW,286,5.0,14.0,-999,-99.99,,,0.00,0.900000,,2013-03-07 15:53:00,
2013-03-07 09:00:00,34.0,-99.9,-100.00,WNW,289,4.0,12.0,-999,-99.99,,,0.00,2.800000,,2013-03-07 16:00:00,
2013-03-07 09:53:00,34.0,-99.9,-100.00,WNW,289,4.0,12.0,-999,-99.99,,,0.00,2.800000,,2013-03-07 16:53:00,
2013-03-07 10:00:00,37.0,-99.9,44.89,NW,305,5.0,21.0,-999,-99.99,,,0.00,29.900000,,2013-03-07 17:00:00,
2013-03-07 10:55:00,37.0,-99.9,44.89,NW,305,5.0,21.0,-999,-99.99,,,0.00,29.900000,,2013-03-07 17:55:00,
2013-03-07 11:00:00,38.0,-99.9,44.89,NNW,327,5.0,16.0,-999,-99.99,,,0.00,44.299999,,2013-03-07 18:00:00,
2013-03-07 11:53:00,38.0,-99.9,44.89,NNW,327,5.0,16.0,-999,-99.99,,,0.00,44.299999,,2013-03-07 18:53:00,
2013-03-07 12:00:00,40.0,-99.9,-100.00,North,-999,-999.0,-999.0,-999,-99.99,,,0.00,,,2013-03-07 19:00:00,
2013-03-07 12:54:00,40.0,-99.9,-100.00,North,-999,-999.0,-999.0,-999,-99.99,,,0.00,,,2013-03-07 19:54:00,
2013-03-07 13:00:00,40.0,-99.9,-100.00,NW,325,5.0,15.0,-999,-99.99,,,0.00,56.200001,,2013-03-07 20:00:00,
2013-03-07 13:54:00,40.0,-99.9,-100.00,NW,325,5.0,15.0,-999,-99.99,,,0.00,56.200001,,2013-03-07 20:54:00,
2013-03-07 14:00:00,40.0,-99.9,44.89,NW,325,5.0,18.0,-999,-99.99,,,-99.99,39.400002,,2013-03-07 21:00:00,
2013-03-07 14:53:00,40.0,-99.9,44.89,NW,325,5.0,18.0,-999,-99.99,,,-99.99,39.400002,,2013-03-07 21:53:00,
2013-03-07 15:00:00,41.0,-99.9,-100.00,NNW,327,5.0,17.0,-999,-99.99,,,0.00,48.799999,,2013-03-07 22:00:00,
2013-03-07 15:55:00,41.0,-99.9,-100.00,NNW,327,5.0,17.0,-999,-99.99,,,0.00,48.799999,,2013-03-07 22:55:00,
2013-03-07 17:00:00,36.0,-99.9,-100.00,North,-999,-999.0,-999.0,-999,-99.99,,,0.00,,,2013-03-08 00:00:00,
2013-03-07 17:54:00,36.0,-99.9,-100.00,North,-999,-999.0,-999.0,-999,-99.99,,,0.00,,,2013-03-08 00:54:00,
2013-03-07 18:00:00,34.0,-99.9,-100.00,North,-999,-999.0,-999.0,-999,-99.99,,,-99.99,,,2013-03-08 01:00:00,
2013-03-07 18:52:00,34.0,-99.9,-100.00,North,-999,-999.0,-999.0,-999,-99.99,,,-99.99,,,2013-03-08 01:52:00,
2013-03-07 19:00:00,32.0,-99.9,-100.00,NW,316,5.0,16.0,-999,-99.99,,,0.00,0.000000,,2013-03-08 02:00:00,
2013-03-07 19:53:00,32.0,-99.9,-100.00,NW,316,5.0,16.0,-999,-99.99,,,0.00,0.000000,,2013-03-08 02:53:00,
2013-03-07 20:00:00,31.0,-99.9,-100.00,NW,307,5.0,19.0,-999,-99.99,,,0.00,0.000000,,2013-03-08 03:00:00,
2013-03-07 20:53:00,31.0,-99.9,-100.00,NW,307,5.0,19.0,-999,-99.99,,,0.00,0.000000,,2013-03-08 03:53:00,
2013-03-07 21:00:00,30.0,-99.9,-100.00,WNW,285,4.0,12.0,-999,-99.99,,,0.00,0.000000,,2013-03-08 04:00:00,
2013-03-07 21:52:00,30.0,-99.9,-100.00,WNW,285,4.0,12.0,-999,-99.99,,,0.00,0.000000,,2013-03-08 04:52:00,
2013-03-07 22:00:00,31.0,-99.9,-100.00,WNW,296,5.0,20.0,-999,-99.99,,,-99.99,0.000000,,2013-03-08 05:00:00,
2013-03-07 22:52:00,31.0,-99.9,-100.00,WNW,296,5.0,20.0,-999,-99.99,,,-99.99,0.000000,,2013-03-08 05:52:00,
2013-03-07 23:00:00,31.0,-99.9,-100.00,North,-999,-999.0,-999.0,-999,-99.99,,,-99.99,,,2013-03-08 06:00:00,
2013-03-07 23:52:00,31.0,-99.9,-100.00,North,-999,-999.0,-999.0,-999,-99.99,,,-99.99,,,2013-03-08 06:52:00,